createdAt,value
2018-11-23T00:00:26.962Z,95290.10
2018-11-23T00:02:56.619Z,95292.22
2018-11-23T00:05:25.308Z,95295.05
2018-11-23T00:07:54.641Z,95293.91
2018-11-23T00:10:24.582Z,95292.61
2018-11-23T00:12:53.546Z,95299.99
2018-11-23T00:15:23.279Z,95297.66
2018-11-23T00:17:51.881Z,95298.36
2018-11-23T00:20:21.890Z,95299.88
2018-11-23T00:22:50.513Z,95304.78
2018-11-23T00:25:20.395Z,95307.43
2018-11-23T00:27:49.282Z,95304.05
2018-11-23T00:30:19.926Z,95309.09
2018-11-23T00:32:49.048Z,95308.50
2018-11-23T00:35:20.354Z,95313.06
2018-11-23T00:37:49.575Z,95317.53
2018-11-23T00:40:19.939Z,95318.12
2018-11-23T00:42:48.815Z,95320.95
2018-11-23T00:45:17.475Z,95326.31
2018-11-23T00:47:46.877Z,95325.50
2018-11-23T00:50:16.875Z,95329.25
2018-11-23T00:52:46.415Z,95329.84
2018-11-23T00:55:16.323Z,95333.02
2018-11-23T00:57:44.924Z,95332.90
2018-11-23T01:00:18.435Z,95327.73
2018-11-23T01:02:47.173Z,95333.12
2018-11-23T01:05:17.129Z,95330.33
2018-11-23T01:07:46.246Z,95329.72
2018-11-23T01:10:16.305Z,95332.78
2018-11-23T01:12:46.061Z,95334.06
2018-11-23T01:15:14.881Z,95336.98
2018-11-23T01:17:43.631Z,95341.22
2018-11-23T01:20:16.623Z,95339.79
2018-11-23T01:22:45.567Z,95337.58
2018-11-23T01:25:15.503Z,95340.25
2018-11-23T01:27:45.122Z,95341.19
2018-11-23T01:30:21.081Z,95337.59
2018-11-23T01:32:49.783Z,95341.68
2018-11-23T01:35:18.435Z,95338.63
2018-11-23T01:37:47.060Z,95339.10
2018-11-23T01:40:18.180Z,95334.30
2018-11-23T01:42:47.251Z,95338.73
2018-11-23T01:45:16.190Z,95333.94
2018-11-23T01:47:44.833Z,95331.47
2018-11-23T01:50:17.635Z,95331.73
2018-11-23T01:52:47.347Z,95342.03
2018-11-23T01:55:17.132Z,95340.39
2018-11-23T01:57:46.262Z,95342.48
2018-11-23T02:00:17.101Z,95345.53
2018-11-23T02:02:46.359Z,95341.33
2018-11-23T02:05:14.957Z,95342.23
2018-11-23T02:07:43.609Z,95341.55
2018-11-23T02:10:13.598Z,95336.51
2018-11-23T02:12:42.288Z,95334.04
2018-11-23T02:15:16.628Z,95334.88
2018-11-23T02:17:45.558Z,95334.98
2018-11-23T02:20:15.432Z,95339.55
2018-11-23T02:22:44.117Z,95338.13
2018-11-23T02:25:12.806Z,95341.08
2018-11-23T02:27:41.390Z,95342.36
2018-11-23T02:30:13.493Z,95345.03
2018-11-23T02:32:42.275Z,95345.49
2018-11-23T02:35:10.998Z,95350.76
2018-11-23T02:37:39.671Z,95345.48
2018-11-23T02:40:09.378Z,95349.34
2018-11-23T02:42:38.341Z,95346.88
2018-11-23T02:45:10.174Z,95349.70
2018-11-23T02:47:39.022Z,95351.77
2018-11-23T02:50:07.820Z,95352.48
2018-11-23T02:52:36.842Z,95352.84
2018-11-23T02:55:06.120Z,95355.77
2018-11-23T02:57:34.925Z,95356.61
2018-11-23T03:00:07.128Z,95360.80
2018-11-23T03:02:35.813Z,95361.95
2018-11-23T03:05:04.990Z,95357.28
2018-11-23T03:07:33.670Z,95363.62
2018-11-23T03:10:02.319Z,95369.03
2018-11-23T03:12:30.980Z,95365.28
2018-11-23T03:14:59.546Z,95367.27
2018-11-23T03:17:28.179Z,95360.27
2018-11-23T03:19:56.972Z,95364.47
2018-11-23T03:22:25.632Z,95373.47
2018-11-23T03:24:54.330Z,95373.73
2018-11-23T03:27:22.996Z,95373.48
2018-11-23T03:29:51.548Z,95375.02
2018-11-23T03:32:20.182Z,95376.98
2018-11-23T03:34:49.809Z,95376.63
2018-11-23T03:37:18.385Z,95378.84
2018-11-23T03:39:46.968Z,95375.09
2018-11-23T03:42:15.646Z,95368.08
2018-11-23T03:44:44.322Z,95371.84
2018-11-23T03:47:12.947Z,95376.86
2018-11-23T03:49:41.521Z,95377.59
2018-11-23T03:52:10.268Z,95375.47
2018-11-23T03:54:38.890Z,95380.41
2018-11-23T03:57:07.564Z,95373.13
2018-11-23T03:59:36.151Z,95372.56
2018-11-23T04:02:04.894Z,95370.11
2018-11-23T04:04:33.543Z,95372.20
2018-11-23T04:07:02.162Z,95371.61
2018-11-23T04:09:30.785Z,95375.35
2018-11-23T04:11:59.493Z,95382.61
2018-11-23T04:14:29.248Z,95387.63
2018-11-23T04:16:57.886Z,95383.41
2018-11-23T04:19:26.748Z,95384.28
2018-11-23T04:21:55.403Z,95379.45
2018-11-23T04:24:24.063Z,95380.40
2018-11-23T04:26:52.699Z,95386.94
2018-11-23T04:29:21.422Z,95382.63
2018-11-23T04:31:50.479Z,95384.83
2018-11-23T04:34:19.137Z,95383.20
2018-11-23T04:36:47.755Z,95380.40
2018-11-23T04:39:16.425Z,95380.26
2018-11-23T04:41:46.440Z,95378.73
2018-11-23T04:44:13.868Z,95381.66
2018-11-23T04:46:42.582Z,95381.19
2018-11-23T04:49:11.229Z,95391.72
2018-11-23T04:51:39.869Z,95387.51
2018-11-23T04:54:08.621Z,95386.24
2018-11-23T04:56:37.282Z,95391.63
2018-11-23T04:59:06.567Z,95394.07
2018-11-23T05:01:35.513Z,95396.33
2018-11-23T05:04:04.309Z,95401.20
2018-11-23T05:06:32.927Z,95402.74
2018-11-23T05:09:01.734Z,95405.45
2018-11-23T05:11:30.532Z,95398.40
2018-11-23T05:13:59.270Z,95404.41
2018-11-23T05:16:27.913Z,95408.02
2018-11-23T05:18:56.544Z,95407.78
2018-11-23T05:21:25.209Z,95409.44
2018-11-23T05:23:53.861Z,95414.71
2018-11-23T05:26:22.510Z,95418.56
2018-11-23T05:28:51.258Z,95415.77
2018-11-23T05:31:19.887Z,95415.41
2018-11-23T05:33:48.608Z,95414.11
2018-11-23T05:36:17.260Z,95415.05
2018-11-23T05:38:45.948Z,95412.23
2018-11-23T05:41:14.637Z,95417.75
2018-11-23T05:43:43.361Z,95420.68
2018-11-23T05:46:12.093Z,95423.70
2018-11-23T05:48:40.796Z,95426.19
2018-11-23T05:51:09.498Z,95431.33
2018-11-23T05:53:38.177Z,95432.14
2018-11-23T05:56:07.118Z,95436.36
2018-11-23T05:58:35.819Z,95432.62
2018-11-23T06:01:04.498Z,95438.34
2018-11-23T06:03:33.182Z,95447.14
2018-11-23T06:06:01.844Z,95442.79
2018-11-23T06:08:30.471Z,95447.73
2018-11-23T06:10:59.112Z,95450.99
2018-11-23T06:13:27.803Z,95456.29
2018-11-23T06:15:56.449Z,95449.82
2018-11-23T06:18:25.091Z,95449.36
2018-11-23T06:20:53.685Z,95455.31
2018-11-23T06:23:22.389Z,95460.95
2018-11-23T06:25:56.693Z,95461.53
2018-11-23T06:28:25.324Z,95468.11
2018-11-23T06:30:54.010Z,95472.78
2018-11-23T06:33:32.524Z,95483.81
2018-11-23T06:36:01.143Z,95483.81
2018-11-23T06:38:29.898Z,95489.43
2018-11-23T06:40:59.408Z,95491.06
2018-11-23T06:43:27.669Z,95495.05
2018-11-23T06:45:57.028Z,95495.42
2018-11-23T06:48:25.664Z,95497.28
2018-11-23T06:50:54.673Z,95501.84
2018-11-23T06:53:23.435Z,95502.89
2018-11-23T06:55:52.217Z,95502.66
2018-11-23T06:58:20.929Z,95504.88
2018-11-23T07:00:49.604Z,95500.87
2018-11-23T07:03:18.284Z,95501.94
2018-11-23T07:05:47.066Z,95512.02
2018-11-23T07:08:15.708Z,95502.99
2018-11-23T07:10:44.311Z,95503.09
2018-11-23T07:13:12.985Z,95500.49
2018-11-23T07:15:41.696Z,95500.72
2018-11-23T07:18:10.396Z,95503.66
2018-11-23T07:20:39.065Z,95507.05
2018-11-23T07:23:07.896Z,95514.56
2018-11-23T07:25:36.663Z,95512.44
2018-11-23T07:28:05.529Z,95527.34
2018-11-23T07:30:34.147Z,95527.83
2018-11-23T07:33:02.764Z,95528.05
2018-11-23T07:35:31.444Z,95534.37
2018-11-23T07:38:00.984Z,95539.05
2018-11-23T07:40:42.478Z,95541.31
2018-11-23T07:43:11.367Z,95539.64
2018-11-23T07:45:40.368Z,95538.22
2018-11-23T07:48:09.352Z,95536.80
2018-11-23T07:50:38.267Z,95529.53
2018-11-23T07:53:07.282Z,95537.28
2018-11-23T07:55:36.014Z,95538.44
2018-11-23T07:58:05.174Z,95545.83
2018-11-23T08:00:33.928Z,95543.22
2018-11-23T08:03:02.591Z,95539.70
2018-11-23T08:05:31.325Z,95547.28
2018-11-23T08:07:59.952Z,95553.63
2018-11-23T08:10:27.725Z,95556.45
2018-11-23T08:12:56.370Z,95555.51
2018-11-23T08:15:26.344Z,95562.45
2018-11-23T08:17:55.020Z,95561.83
2018-11-23T08:20:24.661Z,95565.87
2018-11-23T08:22:53.336Z,95565.27
2018-11-23T08:25:23.065Z,95570.88
2018-11-23T08:27:52.865Z,95564.77
2018-11-23T08:30:22.935Z,95564.19
2018-11-23T08:32:51.719Z,95566.51
2018-11-23T08:35:20.423Z,95562.86
2018-11-23T08:37:49.121Z,95568.02
2018-11-23T08:40:19.971Z,95560.73
2018-11-23T08:42:49.324Z,95560.59
2018-11-23T08:45:19.650Z,95560.54
2018-11-23T08:47:48.257Z,95564.92
2018-11-23T08:50:19.582Z,95567.28
2018-11-23T08:52:48.200Z,95569.05
2018-11-23T08:55:17.849Z,95567.86
2018-11-23T08:57:46.489Z,95558.80
2018-11-23T09:00:23.163Z,95562.68
2018-11-23T09:02:53.103Z,95562.86
2018-11-23T09:05:21.909Z,95565.93
2018-11-23T09:07:51.798Z,95564.28
2018-11-23T09:10:24.306Z,95561.55
2018-11-23T09:12:54.768Z,95557.94
2018-11-23T09:15:23.436Z,95556.13
2018-11-23T09:17:52.144Z,95558.56
2018-11-23T09:20:20.926Z,95552.30
2018-11-23T09:22:50.089Z,95550.94
2018-11-23T09:25:20.745Z,95550.98
2018-11-23T09:27:49.475Z,95546.30
2018-11-23T09:30:19.986Z,95543.91
2018-11-23T09:32:49.450Z,95543.86
2018-11-23T09:35:18.168Z,95543.44
2018-11-23T09:37:47.316Z,95544.93
2018-11-23T09:40:18.267Z,95546.94
2018-11-23T09:42:46.907Z,95545.50
2018-11-23T09:45:17.601Z,95544.86
2018-11-23T09:47:47.035Z,95548.95
2018-11-23T09:50:17.305Z,95544.74
2018-11-23T09:52:46.957Z,95547.44
2018-11-23T09:55:15.672Z,95550.03
2018-11-23T09:57:44.341Z,95544.02
2018-11-23T10:00:18.995Z,95543.08
2018-11-23T10:02:48.525Z,95541.13
2018-11-23T10:05:17.885Z,95537.82
2018-11-23T10:07:48.010Z,95533.02
2018-11-23T10:10:17.493Z,95540.14
2018-11-23T10:12:46.203Z,95536.80
2018-11-23T10:15:16.970Z,95536.59
2018-11-23T10:17:45.731Z,95540.81
2018-11-23T10:20:17.618Z,95535.27
2018-11-23T10:22:46.495Z,95530.00
2018-11-23T10:25:16.971Z,95532.13
2018-11-23T10:27:45.995Z,95527.20
2018-11-23T10:30:20.922Z,95529.26
2018-11-23T10:32:50.736Z,95528.84
2018-11-23T10:35:19.445Z,95534.48
2018-11-23T10:37:49.468Z,95534.33
2018-11-23T10:40:19.650Z,95528.70
2018-11-23T10:42:48.356Z,95527.96
2018-11-23T10:45:20.027Z,95526.20
2018-11-23T10:47:49.472Z,95532.11
2018-11-23T10:50:20.608Z,95528.02
2018-11-23T10:52:49.485Z,95529.37
2018-11-23T10:55:20.018Z,95535.38
2018-11-23T10:57:48.741Z,95529.19
2018-11-23T11:00:23.346Z,95525.78
2018-11-23T11:02:58.464Z,95527.28
2018-11-23T11:05:32.297Z,95517.26
2018-11-23T11:08:02.448Z,95515.80
2018-11-23T11:10:31.128Z,95516.42
2018-11-23T11:12:59.840Z,95513.92
2018-11-23T11:15:28.497Z,95510.09
2018-11-23T11:17:57.147Z,95506.78
2018-11-23T11:20:25.776Z,95505.35
2018-11-23T11:22:54.429Z,95498.33
2018-11-23T11:25:23.181Z,95499.22
2018-11-23T11:27:51.918Z,95507.14
2018-11-23T11:30:20.976Z,95504.00
2018-11-23T11:32:50.140Z,95501.06
2018-11-23T11:35:18.790Z,95500.75
2018-11-23T11:37:47.484Z,95497.93
2018-11-23T11:40:17.682Z,95496.22
2018-11-23T11:42:46.458Z,95493.58
2018-11-23T11:45:16.485Z,95496.92
2018-11-23T11:47:45.664Z,95494.73
2018-11-23T11:50:14.729Z,95493.09
2018-11-23T11:52:44.804Z,95492.44
2018-11-23T11:55:16.046Z,95495.74
2018-11-23T11:57:45.325Z,95493.52
2018-11-23T12:00:17.871Z,95495.14
2018-11-23T12:02:46.838Z,95485.06
2018-11-23T12:05:15.496Z,95487.36
2018-11-23T12:07:44.104Z,95488.20
2018-11-23T12:10:15.564Z,95492.00
2018-11-23T12:12:44.197Z,95489.34
2018-11-23T12:15:13.633Z,95492.09
2018-11-23T12:17:42.545Z,95494.94
2018-11-23T12:20:20.070Z,95503.61
2018-11-23T12:22:48.773Z,95505.59
2018-11-23T12:25:17.742Z,95507.79
2018-11-23T12:27:46.342Z,95498.93
2018-11-23T12:30:16.759Z,95506.09
2018-11-23T12:32:46.334Z,95502.25
2018-11-23T12:35:15.916Z,95499.17
2018-11-23T12:37:44.575Z,95503.46
2018-11-23T12:40:14.636Z,95503.57
2018-11-23T12:42:43.912Z,95499.69
2018-11-23T12:45:19.738Z,95502.77
2018-11-23T12:47:48.405Z,95502.91
2018-11-23T12:50:19.090Z,95501.70
2018-11-23T12:52:47.795Z,95502.05
2018-11-23T12:55:16.904Z,95503.66
2018-11-23T12:57:45.531Z,95502.77
2018-11-23T13:00:23.405Z,95500.72
2018-11-23T13:02:53.679Z,95504.01
2018-11-23T13:05:23.326Z,95497.78
2018-11-23T13:07:52.749Z,95500.66
2018-11-23T13:10:21.926Z,95495.74
2018-11-23T13:12:51.089Z,95501.06
2018-11-23T13:15:19.300Z,95496.33
2018-11-23T13:17:47.983Z,95494.23
2018-11-23T13:20:16.960Z,95491.84
2018-11-23T13:22:45.715Z,95487.41
2018-11-23T13:25:16.569Z,95491.50
2018-11-23T13:27:45.266Z,95489.55
2018-11-23T13:30:17.481Z,95485.75
2018-11-23T13:32:46.206Z,95484.91
2018-11-23T13:35:16.142Z,95485.67
2018-11-23T13:37:44.775Z,95485.05
2018-11-23T13:40:15.438Z,95479.31
2018-11-23T13:42:44.402Z,95476.98
2018-11-23T13:45:14.302Z,95475.25
2018-11-23T13:47:43.071Z,95470.70
2018-11-23T13:50:13.659Z,95471.52
2018-11-23T13:52:43.573Z,95474.94
2018-11-23T13:55:12.226Z,95467.83
2018-11-23T13:57:40.863Z,95478.00
2018-11-23T14:00:17.527Z,95474.55
2018-11-23T14:02:46.703Z,95481.87
2018-11-23T14:05:21.366Z,95486.02
2018-11-23T14:07:51.326Z,95482.38
2018-11-23T14:10:21.394Z,95482.64
2018-11-23T14:12:50.159Z,95483.88
2018-11-23T14:15:20.316Z,95486.87
2018-11-23T14:17:49.810Z,95483.91
2018-11-23T14:20:19.229Z,95487.85
2018-11-23T14:22:48.007Z,95501.47
2018-11-23T14:25:19.066Z,95495.73
2018-11-23T14:27:48.176Z,95493.33
2018-11-23T14:30:19.442Z,95488.74
2018-11-23T14:32:48.282Z,95485.66
2018-11-23T14:35:18.425Z,95480.97
2018-11-23T14:37:47.824Z,95478.69
2018-11-23T14:40:16.536Z,95490.34
2018-11-23T14:42:46.139Z,95492.45
2018-11-23T14:45:18.013Z,95493.28
2018-11-23T14:47:47.200Z,95495.41
2018-11-23T14:50:18.189Z,95496.69
2018-11-23T14:52:48.194Z,95500.91
2018-11-23T14:55:17.186Z,95503.36
2018-11-23T14:57:46.439Z,95508.61
2018-11-23T15:00:20.921Z,95502.07
2018-11-23T15:02:50.840Z,95501.50
2018-11-23T15:05:20.123Z,95512.00
2018-11-23T15:07:48.953Z,95507.89
2018-11-23T15:10:19.089Z,95505.09
2018-11-23T15:12:48.988Z,95516.42
2018-11-23T15:15:19.153Z,95516.95
2018-11-23T15:17:48.789Z,95521.50
2018-11-23T15:20:19.471Z,95526.36
2018-11-23T15:22:49.754Z,95521.64
2018-11-23T15:25:18.481Z,95524.16
2018-11-23T15:27:47.363Z,95521.01
2018-11-23T15:30:21.725Z,95521.92
2018-11-23T15:32:50.369Z,95527.34
2018-11-23T15:35:19.096Z,95538.50
2018-11-23T15:37:47.723Z,95536.44
2018-11-23T15:40:19.124Z,95539.52
2018-11-23T15:42:48.830Z,95533.50
2018-11-23T15:45:20.878Z,95532.06
2018-11-23T15:47:49.514Z,95532.83
2018-11-23T15:50:19.670Z,95536.51
2018-11-23T15:52:48.579Z,95538.42
2018-11-23T15:55:19.974Z,95532.00
2018-11-23T15:57:49.441Z,95532.63
2018-11-23T16:00:23.561Z,95531.61
2018-11-23T16:02:52.354Z,95542.24
2018-11-23T16:05:21.159Z,95543.19
2018-11-23T16:07:50.156Z,95541.16
2018-11-23T16:10:21.117Z,95547.81
2018-11-23T16:12:52.240Z,95553.16
2018-11-23T16:15:21.551Z,95554.13
2018-11-23T16:17:50.878Z,95558.19
2018-11-23T16:20:23.339Z,95556.94
2018-11-23T16:22:53.399Z,95560.36
2018-11-23T16:25:22.178Z,95562.22
2018-11-23T16:27:54.211Z,95559.45
2018-11-23T16:30:25.337Z,95557.81
2018-11-23T16:32:55.224Z,95562.67
2018-11-23T16:35:26.412Z,95561.48
2018-11-23T16:37:56.039Z,95563.66
2018-11-23T16:40:26.794Z,95565.27
2018-11-23T16:42:56.536Z,95566.24
2018-11-23T16:45:27.020Z,95563.97
2018-11-23T16:47:56.916Z,95564.45
2018-11-23T16:50:26.384Z,95567.53
2018-11-23T16:52:55.658Z,95575.45
2018-11-23T16:55:25.066Z,95575.97
2018-11-23T16:57:56.737Z,95576.08
2018-11-23T17:00:27.213Z,95575.11
2018-11-23T17:02:57.375Z,95569.85
2018-11-23T17:05:28.226Z,95566.03
2018-11-23T17:07:57.147Z,95564.67
2018-11-23T17:10:26.181Z,95565.27
2018-11-23T17:12:55.064Z,95564.98
2018-11-23T17:15:25.537Z,95566.87
2018-11-23T17:17:54.457Z,95565.44
2018-11-23T17:20:24.653Z,95563.69
2018-11-23T17:22:54.797Z,95565.82
2018-11-23T17:25:24.980Z,95565.23
2018-11-23T17:27:54.648Z,95565.72
2018-11-23T17:30:25.803Z,95563.97
2018-11-23T17:32:55.088Z,95568.73
2018-11-23T17:35:24.495Z,95570.23
2018-11-23T17:37:53.518Z,95573.30
2018-11-23T17:40:23.849Z,95568.66
2018-11-23T17:42:52.982Z,95573.14
2018-11-23T17:45:24.531Z,95573.80
2018-11-23T17:47:54.155Z,95582.20
2018-11-23T17:50:24.281Z,95578.38
2018-11-23T17:52:53.406Z,95573.41
2018-11-23T17:55:22.225Z,95574.59
2018-11-23T17:57:52.129Z,95578.31
2018-11-23T18:00:22.435Z,95577.79
2018-11-23T18:02:52.346Z,95576.49
2018-11-23T18:05:22.155Z,95581.25
2018-11-23T18:07:51.514Z,95582.44
2018-11-23T18:10:25.588Z,95584.21
2018-11-23T18:12:55.821Z,95580.81
2018-11-23T18:15:25.965Z,95583.86
2018-11-23T18:17:55.993Z,95584.30
2018-11-23T18:20:26.159Z,95583.95
2018-11-23T18:27:43.107Z,95582.06
2018-11-23T18:30:15.380Z,95581.34
2018-11-23T18:32:44.387Z,95580.42
2018-11-23T18:35:15.020Z,95578.34
2018-11-23T18:37:43.986Z,95580.77
2018-11-23T18:40:13.820Z,95582.52
2018-11-23T18:42:43.178Z,95582.31
2018-11-23T18:45:13.696Z,95581.13
2018-11-23T18:47:43.613Z,95580.56
2018-11-23T18:50:15.563Z,95580.06
2018-11-23T18:52:44.884Z,95579.98
2018-11-23T18:55:18.341Z,95579.61
2018-11-23T18:57:43.852Z,95581.88
2018-11-23T19:00:16.736Z,95584.58
2018-11-23T19:02:47.823Z,95584.73
2018-11-23T19:05:20.812Z,95580.29
2018-11-23T19:07:49.823Z,95577.48
2018-11-23T19:10:18.927Z,95570.99
2018-11-23T19:12:47.991Z,95579.94
2018-11-23T19:15:25.296Z,95580.94
2018-11-23T19:17:47.625Z,95582.23
2018-11-23T19:20:22.715Z,95578.99
2018-11-23T19:22:53.902Z,95579.64
2018-11-23T19:25:22.858Z,95577.54
2018-11-23T19:27:51.933Z,95585.30
2018-11-23T19:30:28.059Z,95585.19
2018-11-23T19:32:51.307Z,95579.80
2018-11-23T19:35:20.504Z,95588.20
2018-11-23T19:37:49.609Z,95588.13
2018-11-23T19:40:18.659Z,95586.05
2018-11-23T19:42:47.834Z,95588.09
2018-11-23T19:45:17.680Z,95586.75
2018-11-23T19:47:47.340Z,95593.65
2018-11-23T19:50:19.059Z,95594.34
2018-11-23T19:52:48.466Z,95601.90
2018-11-23T19:55:18.293Z,95601.70
2018-11-23T19:57:47.546Z,95597.72
2018-11-23T20:00:20.324Z,95596.75
2018-11-23T20:02:49.507Z,95597.82
2018-11-23T20:05:18.453Z,95595.86
2018-11-23T20:07:48.897Z,95597.25
2018-11-23T20:10:21.842Z,95598.02
2018-11-23T20:12:55.365Z,95601.92
2018-11-23T20:15:24.546Z,95597.60
2018-11-23T20:17:53.729Z,95594.56
2018-11-23T20:20:24.319Z,95591.19
2018-11-23T20:22:53.451Z,95597.73
2018-11-23T20:25:22.612Z,95597.73
2018-11-23T20:27:52.632Z,95602.25
2018-11-23T20:30:21.968Z,95596.80
2018-11-23T20:32:51.566Z,95596.92
2018-11-23T20:35:21.519Z,95597.30
2018-11-23T20:37:50.555Z,95595.42
2018-11-23T20:40:21.342Z,95596.02
2018-11-23T20:42:50.383Z,95595.48
2018-11-23T20:45:19.690Z,95594.41
2018-11-23T20:47:48.448Z,95598.83
2018-11-23T20:50:18.086Z,95599.02
2018-11-23T20:52:47.166Z,95598.06
2018-11-23T20:55:21.066Z,95602.09
2018-11-23T20:57:49.877Z,95597.75
2018-11-23T21:00:20.832Z,95600.02
2018-11-23T21:02:51.525Z,95598.45
2018-11-23T21:05:21.114Z,95599.01
2018-11-23T21:07:49.791Z,95599.20
2018-11-23T21:10:20.897Z,95600.31
2018-11-23T21:12:49.806Z,95597.91
2018-11-23T21:15:25.704Z,95598.58
2018-11-23T21:17:54.378Z,95600.94
2018-11-23T21:20:23.108Z,95600.14
2018-11-23T21:22:51.799Z,95602.02
2018-11-23T21:25:20.450Z,95600.38
2018-11-23T21:27:49.471Z,95600.67
2018-11-23T21:30:19.775Z,95599.04
2018-11-23T21:32:48.996Z,95598.63
2018-11-23T21:35:18.078Z,95595.60
2018-11-23T21:37:47.719Z,95600.55
2018-11-23T21:40:17.639Z,95598.96
2018-11-23T21:42:46.680Z,95590.41
2018-11-23T21:45:17.488Z,95593.38
2018-11-23T21:47:46.601Z,95589.02
2018-11-23T21:51:44.910Z,95587.37
2018-11-23T21:54:14.126Z,95587.77
2018-11-23T21:56:43.457Z,95599.84
2018-11-23T21:59:12.758Z,95600.17
2018-11-23T22:01:41.939Z,95601.84
2018-11-23T22:04:11.389Z,95598.30
2018-11-23T22:06:40.737Z,95595.84
2018-11-23T22:09:09.822Z,95579.66
2018-11-23T22:11:39.790Z,95600.76
2018-11-23T22:14:09.029Z,95595.74
2018-11-23T22:16:38.121Z,95597.25
2018-11-23T22:19:07.279Z,95596.68
2018-11-23T22:21:36.799Z,95595.52
2018-11-23T22:24:06.248Z,95598.55
2018-11-23T22:26:35.318Z,95594.91
2018-11-23T22:29:04.540Z,95595.28
2018-11-23T22:31:33.521Z,95590.13
2018-11-23T22:34:02.533Z,95597.14
2018-11-23T22:36:31.544Z,95595.86
2018-11-23T22:39:01.040Z,95584.14
2018-11-23T22:41:30.551Z,95583.77
2018-11-23T22:44:00.428Z,95584.00
2018-11-23T22:46:29.968Z,95581.43
2018-11-23T22:49:00.095Z,95583.75
2018-11-23T22:51:29.095Z,95586.56
2018-11-23T22:53:59.083Z,95579.55
2018-11-23T22:56:29.141Z,95583.30
2018-11-23T22:58:59.252Z,95577.69
2018-11-23T23:01:29.456Z,95584.92
2018-11-23T23:03:59.393Z,95586.57
2018-11-23T23:06:29.095Z,95582.70
2018-11-23T23:08:59.208Z,95589.02
2018-11-23T23:11:28.915Z,95582.36
2018-11-23T23:13:58.836Z,95597.35
2018-11-23T23:16:28.394Z,95592.77
2018-11-23T23:18:57.445Z,95590.09
2018-11-23T23:21:26.520Z,95590.92
2018-11-23T23:23:55.837Z,95595.49
2018-11-23T23:26:25.283Z,95587.87
2018-11-23T23:28:56.643Z,95587.37
2018-11-23T23:31:25.737Z,95582.60
2018-11-23T23:33:54.825Z,95599.69
2018-11-23T23:36:24.044Z,95588.70
2018-11-23T23:38:53.060Z,95595.73
2018-11-23T23:41:22.107Z,95592.80
2018-11-23T23:43:51.155Z,95589.64
2018-11-23T23:46:20.557Z,95591.75
2018-11-23T23:48:49.765Z,95591.63
2018-11-23T23:51:18.735Z,95596.20
2018-11-23T23:53:47.731Z,95594.56
2018-11-23T23:56:16.835Z,95596.20
2018-11-23T23:58:46.184Z,95595.02
